sensor_id;sensor_type;location;lat;lon;timestamp;pressure;altitude;pressure_sealevel;temperature;humidity
6150;BME280;3106;42.670;23.318;2022-10-16T00:01:42;95039.31;;;9.82;100.00
6150;BME280;3106;42.670;23.318;2022-10-16T00:04:19;95043.38;;;9.88;100.00
6150;BME280;3106;42.670;23.318;2022-10-16T00:06:50;95079.63;;;10.06;100.00
6150;BME280;3106;42.670;23.318;2022-10-16T00:09:17;95072.84;;;10.00;100.00
6150;BME280;3106;42.670;23.318;2022-10-16T00:11:44;95062.88;;;9.89;100.00
6150;BME280;3106;42.670;23.318;2022-10-16T00:14:13;95067.09;;;9.90;100.00
6150;BME280;3106;42.670;23.318;2022-10-16T00:16:42;95075.56;;;9.92;100.00
6150;BME280;3106;42.670;23.318;2022-10-16T00:19:10;95080.28;;;9.95;100.00
6150;BME280;3106;42.670;23.318;2022-10-16T00:21:37;95059.94;;;9.73;100.00
6150;BME280;3106;42.670;23.318;2022-10-16T00:24:08;95074.31;;;9.89;100.00
6150;BME280;3106;42.670;23.318;2022-10-16T00:26:39;95053.84;;;9.64;100.00
6150;BME280;3106;42.670;23.318;2022-10-16T00:29:06;95074.53;;;9.76;100.00
6150;BME280;3106;42.670;23.318;2022-10-16T00:31:33;95084.56;;;9.79;100.00
6150;BME280;3106;42.670;23.318;2022-10-16T00:34:01;95060.47;;;9.58;100.00
6150;BME280;3106;42.670;23.318;2022-10-16T00:36:29;95065.34;;;9.56;100.00
6150;BME280;3106;42.670;23.318;2022-10-16T00:38:58;95074.25;;;9.60;100.00
6150;BME280;3106;42.670;23.318;2022-10-16T00:41:26;95069.44;;;9.54;100.00
6150;BME280;3106;42.670;23.318;2022-10-16T00:43:55;95086.03;;;9.59;100.00
6150;BME280;3106;42.670;23.318;2022-10-16T00:46:24;95065.50;;;9.51;100.00
6150;BME280;3106;42.670;23.318;2022-10-16T00:49:08;95075.69;;;9.58;100.00
6150;BME280;3106;42.670;23.318;2022-10-16T00:51:38;95082.41;;;9.72;100.00
6150;BME280;3106;42.670;23.318;2022-10-16T00:54:09;95065.94;;;9.62;100.00
6150;BME280;3106;42.670;23.318;2022-10-16T00:56:36;95066.59;;;9.59;100.00
6150;BME280;3106;42.670;23.318;2022-10-16T00:59:09;95056.09;;;9.54;100.00
6150;BME280;3106;42.670;23.318;2022-10-16T01:01:38;95092.78;;;9.65;100.00
6150;BME280;3106;42.670;23.318;2022-10-16T01:04:06;95086.97;;;9.63;100.00
6150;BME280;3106;42.670;23.318;2022-10-16T01:06:38;95073.84;;;9.50;100.00
6150;BME280;3106;42.670;23.318;2022-10-16T01:09:13;95069.75;;;9.52;100.00
6150;BME280;3106;42.670;23.318;2022-10-16T01:11:45;95081.69;;;9.55;100.00
6150;BME280;3106;42.670;23.318;2022-10-16T01:14:21;95067.88;;;9.44;100.00
6150;BME280;3106;42.670;23.318;2022-10-16T01:16:54;95092.19;;;9.60;100.00
6150;BME280;3106;42.670;23.318;2022-10-16T01:19:38;95059.72;;;9.41;100.00
6150;BME280;3106;42.670;23.318;2022-10-16T01:22:10;95061.94;;;9.39;100.00
6150;BME280;3106;42.670;23.318;2022-10-16T01:24:41;95086.22;;;9.54;100.00
6150;BME280;3106;42.670;23.318;2022-10-16T01:27:17;95078.56;;;9.53;100.00
6150;BME280;3106;42.670;23.318;2022-10-16T01:29:53;95090.00;;;9.53;100.00
6150;BME280;3106;42.670;23.318;2022-10-16T01:32:23;95077.31;;;9.42;100.00
6150;BME280;3106;42.670;23.318;2022-10-16T01:34:58;95035.66;;;9.12;100.00
6150;BME280;3106;42.670;23.318;2022-10-16T01:37:33;95054.47;;;9.15;100.00
6150;BME280;3106;42.670;23.318;2022-10-16T01:40:06;95080.31;;;9.23;100.00
6150;BME280;3106;42.670;23.318;2022-10-16T01:42:39;95068.75;;;9.11;100.00
6150;BME280;3106;42.670;23.318;2022-10-16T01:45:08;95081.00;;;9.12;100.00
6150;BME280;3106;42.670;23.318;2022-10-16T01:47:38;95079.28;;;8.99;100.00
6150;BME280;3106;42.670;23.318;2022-10-16T01:50:08;95085.06;;;9.01;100.00
6150;BME280;3106;42.670;23.318;2022-10-16T01:52:37;95080.25;;;8.95;100.00
6150;BME280;3106;42.670;23.318;2022-10-16T01:55:06;95073.16;;;8.90;100.00
6150;BME280;3106;42.670;23.318;2022-10-16T01:57:39;95074.28;;;8.89;100.00
6150;BME280;3106;42.670;23.318;2022-10-16T02:00:11;95072.53;;;8.93;100.00
6150;BME280;3106;42.670;23.318;2022-10-16T02:02:40;95062.34;;;8.87;100.00
6150;BME280;3106;42.670;23.318;2022-10-16T02:05:11;95082.41;;;9.01;100.00
6150;BME280;3106;42.670;23.318;2022-10-16T02:07:40;95093.84;;;9.10;100.00
6150;BME280;3106;42.670;23.318;2022-10-16T02:10:08;95108.28;;;9.09;100.00
6150;BME280;3106;42.670;23.318;2022-10-16T02:12:39;95101.53;;;9.11;100.00
6150;BME280;3106;42.670;23.318;2022-10-16T02:15:08;95109.72;;;9.15;100.00
6150;BME280;3106;42.670;23.318;2022-10-16T02:17:35;95099.50;;;9.08;100.00
6150;BME280;3106;42.670;23.318;2022-10-16T02:20:03;95093.88;;;9.01;100.00
6150;BME280;3106;42.670;23.318;2022-10-16T02:22:33;95122.56;;;9.04;100.00
6150;BME280;3106;42.670;23.318;2022-10-16T02:25:06;95097.31;;;8.77;100.00
6150;BME280;3106;42.670;23.318;2022-10-16T02:27:41;95114.13;;;8.77;100.00
6150;BME280;3106;42.670;23.318;2022-10-16T02:30:13;95122.88;;;8.78;100.00
6150;BME280;3106;42.670;23.318;2022-10-16T02:32:42;95135.13;;;8.79;100.00
6150;BME280;3106;42.670;23.318;2022-10-16T02:35:11;95133.06;;;8.59;100.00
6150;BME280;3106;42.670;23.318;2022-10-16T02:37:40;95099.97;;;8.43;100.00
6150;BME280;3106;42.670;23.318;2022-10-16T02:40:08;95110.63;;;8.43;100.00
6150;BME280;3106;42.670;23.318;2022-10-16T02:42:37;95123.00;;;8.56;100.00
6150;BME280;3106;42.670;23.318;2022-10-16T02:45:07;95107.31;;;8.46;100.00
6150;BME280;3106;42.670;23.318;2022-10-16T02:47:35;95129.63;;;8.58;100.00
6150;BME280;3106;42.670;23.318;2022-10-16T02:50:03;95131.78;;;8.48;100.00
6150;BME280;3106;42.670;23.318;2022-10-16T02:52:30;95133.97;;;8.46;100.00
6150;BME280;3106;42.670;23.318;2022-10-16T02:54:57;95091.88;;;8.09;100.00
6150;BME280;3106;42.670;23.318;2022-10-16T02:57:23;95118.25;;;8.27;100.00
6150;BME280;3106;42.670;23.318;2022-10-16T02:59:50;95123.13;;;8.25;100.00
6150;BME280;3106;42.670;23.318;2022-10-16T03:02:19;95130.16;;;8.21;100.00
6150;BME280;3106;42.670;23.318;2022-10-16T03:04:46;95113.66;;;8.02;100.00
6150;BME280;3106;42.670;23.318;2022-10-16T03:07:13;95126.97;;;8.11;100.00
6150;BME280;3106;42.670;23.318;2022-10-16T03:09:40;95131.19;;;8.12;100.00
6150;BME280;3106;42.670;23.318;2022-10-16T03:12:07;95122.06;;;7.96;100.00
6150;BME280;3106;42.670;23.318;2022-10-16T03:14:34;95119.84;;;7.89;100.00
6150;BME280;3106;42.670;23.318;2022-10-16T03:17:00;95136.00;;;8.01;100.00
6150;BME280;3106;42.670;23.318;2022-10-16T03:19:29;95142.94;;;8.11;100.00
6150;BME280;3106;42.670;23.318;2022-10-16T03:21:56;95139.31;;;8.07;100.00
6150;BME280;3106;42.670;23.318;2022-10-16T03:24:23;95150.00;;;8.15;100.00
6150;BME280;3106;42.670;23.318;2022-10-16T03:26:50;95135.91;;;8.06;100.00
6150;BME280;3106;42.670;23.318;2022-10-16T03:29:16;95132.75;;;8.04;100.00
6150;BME280;3106;42.670;23.318;2022-10-16T03:31:43;95155.88;;;8.26;100.00
6150;BME280;3106;42.670;23.318;2022-10-16T03:34:10;95134.00;;;8.07;100.00
6150;BME280;3106;42.670;23.318;2022-10-16T03:36:38;95133.84;;;8.03;100.00
6150;BME280;3106;42.670;23.318;2022-10-16T03:39:05;95152.19;;;8.13;100.00
6150;BME280;3106;42.670;23.318;2022-10-16T03:41:32;95130.09;;;8.04;100.00
6150;BME280;3106;42.670;23.318;2022-10-16T03:43:59;95149.69;;;8.17;100.00
6150;BME280;3106;42.670;23.318;2022-10-16T03:46:26;95141.69;;;8.17;100.00
6150;BME280;3106;42.670;23.318;2022-10-16T03:48:53;95146.94;;;8.22;100.00
6150;BME280;3106;42.670;23.318;2022-10-16T03:51:20;95152.13;;;8.27;100.00
6150;BME280;3106;42.670;23.318;2022-10-16T03:53:48;95129.69;;;8.19;100.00
6150;BME280;3106;42.670;23.318;2022-10-16T03:56:15;95141.28;;;8.23;100.00
6150;BME280;3106;42.670;23.318;2022-10-16T03:58:43;95131.38;;;8.15;100.00
6150;BME280;3106;42.670;23.318;2022-10-16T04:01:09;95130.91;;;8.13;100.00
6150;BME280;3106;42.670;23.318;2022-10-16T04:03:36;95150.09;;;8.24;100.00
6150;BME280;3106;42.670;23.318;2022-10-16T04:06:03;95133.38;;;8.10;100.00
6150;BME280;3106;42.670;23.318;2022-10-16T04:08:30;95151.09;;;8.14;100.00
6150;BME280;3106;42.670;23.318;2022-10-16T04:11:01;95145.75;;;8.06;100.00
6150;BME280;3106;42.670;23.318;2022-10-16T04:13:27;95136.34;;;8.00;100.00
6150;BME280;3106;42.670;23.318;2022-10-16T04:15:54;95150.91;;;8.02;100.00
6150;BME280;3106;42.670;23.318;2022-10-16T04:18:21;95124.53;;;7.84;100.00
6150;BME280;3106;42.670;23.318;2022-10-16T04:20:48;95118.22;;;7.80;100.00
6150;BME280;3106;42.670;23.318;2022-10-16T04:23:15;95106.00;;;7.70;100.00
6150;BME280;3106;42.670;23.318;2022-10-16T04:25:42;95144.28;;;7.91;100.00
6150;BME280;3106;42.670;23.318;2022-10-16T04:28:10;95146.13;;;7.82;100.00
6150;BME280;3106;42.670;23.318;2022-10-16T04:30:38;95165.09;;;7.89;100.00
6150;BME280;3106;42.670;23.318;2022-10-16T04:33:05;95128.94;;;7.58;100.00
6150;BME280;3106;42.670;23.318;2022-10-16T04:35:31;95140.22;;;7.63;100.00
6150;BME280;3106;42.670;23.318;2022-10-16T04:37:59;95169.28;;;7.82;100.00
6150;BME280;3106;42.670;23.318;2022-10-16T04:40:26;95134.44;;;7.61;100.00
6150;BME280;3106;42.670;23.318;2022-10-16T04:42:52;95161.56;;;7.72;100.00
6150;BME280;3106;42.670;23.318;2022-10-16T04:45:21;95156.56;;;7.70;100.00
6150;BME280;3106;42.670;23.318;2022-10-16T04:47:47;95156.69;;;7.65;100.00
6150;BME280;3106;42.670;23.318;2022-10-16T04:50:14;95161.88;;;7.70;100.00
6150;BME280;3106;42.670;23.318;2022-10-16T04:52:41;95156.69;;;7.65;100.00
6150;BME280;3106;42.670;23.318;2022-10-16T04:55:08;95169.91;;;7.79;100.00
6150;BME280;3106;42.670;23.318;2022-10-16T04:57:35;95185.91;;;7.87;100.00
6150;BME280;3106;42.670;23.318;2022-10-16T05:00:03;95190.50;;;7.95;100.00
6150;BME280;3106;42.670;23.318;2022-10-16T05:02:31;95188.44;;;7.92;100.00
6150;BME280;3106;42.670;23.318;2022-10-16T05:04:58;95176.06;;;7.88;100.00
6150;BME280;3106;42.670;23.318;2022-10-16T05:07:25;95198.38;;;8.09;100.00
6150;BME280;3106;42.670;23.318;2022-10-16T05:09:52;95186.13;;;7.99;100.00
6150;BME280;3106;42.670;23.318;2022-10-16T05:12:19;95168.75;;;8.02;100.00
6150;BME280;3106;42.670;23.318;2022-10-16T05:14:45;95174.59;;;8.12;100.00
6150;BME280;3106;42.670;23.318;2022-10-16T05:17:12;95171.31;;;8.15;100.00
6150;BME280;3106;42.670;23.318;2022-10-16T05:19:41;95184.09;;;8.27;100.00
6150;BME280;3106;42.670;23.318;2022-10-16T05:22:08;95173.25;;;8.23;100.00
6150;BME280;3106;42.670;23.318;2022-10-16T05:24:35;95182.66;;;8.29;100.00
6150;BME280;3106;42.670;23.318;2022-10-16T05:27:02;95201.38;;;8.55;100.00
6150;BME280;3106;42.670;23.318;2022-10-16T05:29:29;95202.38;;;8.59;100.00
6150;BME280;3106;42.670;23.318;2022-10-16T05:31:56;95206.78;;;8.72;100.00
6150;BME280;3106;42.670;23.318;2022-10-16T05:34:23;95213.53;;;8.78;100.00
6150;BME280;3106;42.670;23.318;2022-10-16T05:36:51;95220.91;;;8.81;100.00
6150;BME280;3106;42.670;23.318;2022-10-16T05:39:18;95168.81;;;8.58;100.00
6150;BME280;3106;42.670;23.318;2022-10-16T05:41:46;95202.56;;;8.88;100.00
6150;BME280;3106;42.670;23.318;2022-10-16T05:44:13;95170.84;;;8.69;100.00
6150;BME280;3106;42.670;23.318;2022-10-16T05:46:40;95186.25;;;8.89;100.00
6150;BME280;3106;42.670;23.318;2022-10-16T05:49:07;95213.41;;;9.08;100.00
6150;BME280;3106;42.670;23.318;2022-10-16T05:51:33;95213.09;;;9.09;100.00
6150;BME280;3106;42.670;23.318;2022-10-16T05:54:02;95202.25;;;9.06;100.00
6150;BME280;3106;42.670;23.318;2022-10-16T05:56:29;95225.50;;;9.05;100.00
6150;BME280;3106;42.670;23.318;2022-10-16T05:58:56;95233.50;;;9.05;100.00
6150;BME280;3106;42.670;23.318;2022-10-16T06:01:23;95202.09;;;8.94;100.00
6150;BME280;3106;42.670;23.318;2022-10-16T06:03:51;95248.88;;;9.08;100.00
6150;BME280;3106;42.670;23.318;2022-10-16T06:06:19;95213.84;;;8.85;100.00
6150;BME280;3106;42.670;23.318;2022-10-16T06:08:47;95211.66;;;8.95;100.00
6150;BME280;3106;42.670;23.318;2022-10-16T06:11:19;95247.94;;;9.21;100.00
6150;BME280;3106;42.670;23.318;2022-10-16T06:13:49;95229.09;;;9.26;100.00
6150;BME280;3106;42.670;23.318;2022-10-16T06:16:16;95239.16;;;9.46;100.00
6150;BME280;3106;42.670;23.318;2022-10-16T06:18:43;95239.94;;;9.64;100.00
6150;BME280;3106;42.670;23.318;2022-10-16T06:21:12;95261.13;;;9.86;100.00
6150;BME280;3106;42.670;23.318;2022-10-16T06:23:40;95224.84;;;9.68;100.00
6150;BME280;3106;42.670;23.318;2022-10-16T06:26:14;95228.00;;;9.70;99.69
6150;BME280;3106;42.670;23.318;2022-10-16T06:28:58;95272.91;;;10.02;99.58
6150;BME280;3106;42.670;23.318;2022-10-16T06:31:30;95250.13;;;9.87;99.44
6150;BME280;3106;42.670;23.318;2022-10-16T06:33:59;95268.81;;;10.04;99.05
6150;BME280;3106;42.670;23.318;2022-10-16T06:36:26;95269.75;;;10.08;99.51
6150;BME280;3106;42.670;23.318;2022-10-16T06:38:53;95252.31;;;9.94;99.70
6150;BME280;3106;42.670;23.318;2022-10-16T06:41:22;95262.16;;;10.19;99.34
6150;BME280;3106;42.670;23.318;2022-10-16T06:43:49;95255.06;;;10.31;99.07
6150;BME280;3106;42.670;23.318;2022-10-16T06:46:19;95279.31;;;10.63;98.77
6150;BME280;3106;42.670;23.318;2022-10-16T06:48:46;95262.19;;;10.64;98.74
6150;BME280;3106;42.670;23.318;2022-10-16T06:51:14;95248.81;;;10.64;98.37
6150;BME280;3106;42.670;23.318;2022-10-16T06:53:43;95282.25;;;11.08;97.11
6150;BME280;3106;42.670;23.318;2022-10-16T06:56:11;95278.81;;;11.28;96.00
6150;BME280;3106;42.670;23.318;2022-10-16T06:58:40;95307.03;;;11.46;95.26
6150;BME280;3106;42.670;23.318;2022-10-16T07:01:07;95283.88;;;11.50;94.64
6150;BME280;3106;42.670;23.318;2022-10-16T07:03:37;95267.47;;;11.51;94.32
6150;BME280;3106;42.670;23.318;2022-10-16T07:06:06;95280.44;;;11.70;94.14
6150;BME280;3106;42.670;23.318;2022-10-16T07:08:34;95276.38;;;11.64;93.63
6150;BME280;3106;42.670;23.318;2022-10-16T07:11:03;95279.06;;;11.64;93.25
6150;BME280;3106;42.670;23.318;2022-10-16T07:13:35;95268.00;;;11.65;93.58
6150;BME280;3106;42.670;23.318;2022-10-16T07:16:06;95286.63;;;11.82;93.06
6150;BME280;3106;42.670;23.318;2022-10-16T07:18:33;95299.22;;;11.82;93.06
6150;BME280;3106;42.670;23.318;2022-10-16T07:21:07;95292.91;;;11.86;93.01
6150;BME280;3106;42.670;23.318;2022-10-16T07:23:34;95288.50;;;11.82;92.53
6150;BME280;3106;42.670;23.318;2022-10-16T07:26:02;95315.19;;;11.99;92.50
6150;BME280;3106;42.670;23.318;2022-10-16T07:28:29;95310.03;;;11.94;91.97
6150;BME280;3106;42.670;23.318;2022-10-16T07:31:00;95314.34;;;12.18;91.83
6150;BME280;3106;42.670;23.318;2022-10-16T07:33:27;95307.69;;;12.24;91.14
6150;BME280;3106;42.670;23.318;2022-10-16T07:35:55;95302.44;;;12.28;90.68
6150;BME280;3106;42.670;23.318;2022-10-16T07:38:23;95300.56;;;12.40;90.49
6150;BME280;3106;42.670;23.318;2022-10-16T07:40:56;95297.81;;;12.49;90.05
6150;BME280;3106;42.670;23.318;2022-10-16T07:43:23;95301.63;;;12.60;89.52
6150;BME280;3106;42.670;23.318;2022-10-16T07:45:50;95313.16;;;12.72;88.96
6150;BME280;3106;42.670;23.318;2022-10-16T07:48:18;95291.47;;;12.65;89.07
6150;BME280;3106;42.670;23.318;2022-10-16T07:50:45;95287.31;;;12.68;88.06
6150;BME280;3106;42.670;23.318;2022-10-16T07:53:12;95320.03;;;13.06;86.92
6150;BME280;3106;42.670;23.318;2022-10-16T07:55:41;95304.72;;;13.18;86.38
6150;BME280;3106;42.670;23.318;2022-10-16T07:58:08;95309.31;;;13.30;86.04
6150;BME280;3106;42.670;23.318;2022-10-16T08:00:36;95299.81;;;13.32;85.65
6150;BME280;3106;42.670;23.318;2022-10-16T08:03:04;95300.22;;;13.46;84.74
6150;BME280;3106;42.670;23.318;2022-10-16T08:05:32;95326.22;;;13.81;83.32
6150;BME280;3106;42.670;23.318;2022-10-16T08:08:00;95305.75;;;13.77;82.62
6150;BME280;3106;42.670;23.318;2022-10-16T08:10:28;95317.56;;;14.00;81.74
6150;BME280;3106;42.670;23.318;2022-10-16T08:12:58;95308.09;;;13.78;81.56
6150;BME280;3106;42.670;23.318;2022-10-16T08:15:25;95323.97;;;13.95;81.02
6150;BME280;3106;42.670;23.318;2022-10-16T08:17:57;95329.31;;;14.07;80.97
6150;BME280;3106;42.670;23.318;2022-10-16T08:20:25;95320.78;;;14.17;80.83
6150;BME280;3106;42.670;23.318;2022-10-16T08:22:53;95288.16;;;14.19;80.23
6150;BME280;3106;42.670;23.318;2022-10-16T08:25:21;95309.63;;;14.31;79.65
6150;BME280;3106;42.670;23.318;2022-10-16T08:27:48;95291.91;;;14.30;78.47
6150;BME280;3106;42.670;23.318;2022-10-16T08:30:20;95330.28;;;14.70;78.13
6150;BME280;3106;42.670;23.318;2022-10-16T08:32:47;95290.78;;;14.58;77.65
6150;BME280;3106;42.670;23.318;2022-10-16T08:35:14;95291.28;;;14.64;76.99
6150;BME280;3106;42.670;23.318;2022-10-16T08:37:41;95310.50;;;14.78;76.29
6150;BME280;3106;42.670;23.318;2022-10-16T08:40:16;95292.97;;;14.84;75.88
6150;BME280;3106;42.670;23.318;2022-10-16T08:43:05;95307.72;;;15.05;75.29
6150;BME280;3106;42.670;23.318;2022-10-16T08:45:45;95299.28;;;15.22;74.10
6150;BME280;3106;42.670;23.318;2022-10-16T08:48:20;95300.38;;;15.33;72.56
6150;BME280;3106;42.670;23.318;2022-10-16T08:50:51;95303.06;;;15.33;72.50
6150;BME280;3106;42.670;23.318;2022-10-16T08:53:22;95313.59;;;15.57;71.41
6150;BME280;3106;42.670;23.318;2022-10-16T08:55:52;95325.22;;;15.76;69.74
6150;BME280;3106;42.670;23.318;2022-10-16T08:58:20;95321.03;;;15.79;66.92
6150;BME280;3106;42.670;23.318;2022-10-16T09:00:52;95328.22;;;15.90;65.76
6150;BME280;3106;42.670;23.318;2022-10-16T09:03:36;95325.53;;;16.09;63.40
6150;BME280;3106;42.670;23.318;2022-10-16T09:06:27;95310.69;;;16.19;61.65
6150;BME280;3106;42.670;23.318;2022-10-16T09:09:12;95323.03;;;16.35;61.36
6150;BME280;3106;42.670;23.318;2022-10-16T09:11:49;95336.28;;;16.63;60.46
6150;BME280;3106;42.670;23.318;2022-10-16T09:14:34;95319.44;;;16.50;58.79
6150;BME280;3106;42.670;23.318;2022-10-16T09:17:17;95327.41;;;16.62;57.98
6150;BME280;3106;42.670;23.318;2022-10-16T09:19:51;95325.84;;;16.61;56.36
6150;BME280;3106;42.670;23.318;2022-10-16T09:22:22;95301.28;;;16.69;55.32
6150;BME280;3106;42.670;23.318;2022-10-16T09:24:54;95314.56;;;16.78;56.30
6150;BME280;3106;42.670;23.318;2022-10-16T09:27:21;95325.34;;;16.97;57.15
6150;BME280;3106;42.670;23.318;2022-10-16T09:29:48;95325.81;;;17.02;57.19
6150;BME280;3106;42.670;23.318;2022-10-16T09:32:19;95331.63;;;16.82;55.75
6150;BME280;3106;42.670;23.318;2022-10-16T09:34:49;95327.66;;;16.76;55.78
6150;BME280;3106;42.670;23.318;2022-10-16T09:37:19;95288.50;;;16.67;55.04
6150;BME280;3106;42.670;23.318;2022-10-16T09:39:48;95306.41;;;16.74;56.50
6150;BME280;3106;42.670;23.318;2022-10-16T09:42:17;95299.69;;;16.87;55.59
6150;BME280;3106;42.670;23.318;2022-10-16T09:44:47;95317.38;;;17.30;53.78
6150;BME280;3106;42.670;23.318;2022-10-16T09:47:18;95318.69;;;17.36;52.71
6150;BME280;3106;42.670;23.318;2022-10-16T09:49:53;95304.78;;;17.37;52.06
6150;BME280;3106;42.670;23.318;2022-10-16T09:52:21;95319.72;;;17.54;52.16
6150;BME280;3106;42.670;23.318;2022-10-16T09:54:49;95314.22;;;17.47;50.79
6150;BME280;3106;42.670;23.318;2022-10-16T09:57:17;95312.91;;;17.37;52.34
6150;BME280;3106;42.670;23.318;2022-10-16T09:59:47;95311.97;;;17.30;53.04
6150;BME280;3106;42.670;23.318;2022-10-16T10:02:17;95315.41;;;17.27;52.72
6150;BME280;3106;42.670;23.318;2022-10-16T10:04:49;95279.94;;;17.06;51.80
6150;BME280;3106;42.670;23.318;2022-10-16T10:07:19;95275.78;;;17.12;49.30
6150;BME280;3106;42.670;23.318;2022-10-16T10:09:48;95302.16;;;17.41;48.92
6150;BME280;3106;42.670;23.318;2022-10-16T10:12:17;95313.41;;;17.69;48.58
6150;BME280;3106;42.670;23.318;2022-10-16T10:14:47;95297.47;;;17.64;47.56
6150;BME280;3106;42.670;23.318;2022-10-16T10:17:18;95299.19;;;17.75;48.15
6150;BME280;3106;42.670;23.318;2022-10-16T10:19:51;95294.81;;;17.93;47.90
6150;BME280;3106;42.670;23.318;2022-10-16T10:22:22;95304.00;;;18.18;47.84
6150;BME280;3106;42.670;23.318;2022-10-16T10:25:13;95290.28;;;18.30;47.28
6150;BME280;3106;42.670;23.318;2022-10-16T10:27:51;95288.97;;;18.21;46.22
6150;BME280;3106;42.670;23.318;2022-10-16T10:30:25;95289.94;;;18.35;45.85
6150;BME280;3106;42.670;23.318;2022-10-16T10:33:09;95294.22;;;18.39;45.88
6150;BME280;3106;42.670;23.318;2022-10-16T10:35:44;95276.84;;;18.40;45.53
6150;BME280;3106;42.670;23.318;2022-10-16T10:38:27;95273.53;;;18.24;45.60
6150;BME280;3106;42.670;23.318;2022-10-16T10:41:10;95267.72;;;18.23;44.57
6150;BME280;3106;42.670;23.318;2022-10-16T10:43:48;95278.84;;;18.43;43.02
6150;BME280;3106;42.670;23.318;2022-10-16T10:46:26;95261.03;;;18.42;41.82
6150;BME280;3106;42.670;23.318;2022-10-16T10:49:12;95252.25;;;18.56;42.39
6150;BME280;3106;42.670;23.318;2022-10-16T10:51:55;95262.84;;;18.68;42.32
6150;BME280;3106;42.670;23.318;2022-10-16T10:54:33;95277.88;;;18.65;42.08
6150;BME280;3106;42.670;23.318;2022-10-16T10:57:08;95270.66;;;18.40;43.86
6150;BME280;3106;42.670;23.318;2022-10-16T11:00:05;95283.16;;;18.51;44.80
6150;BME280;3106;42.670;23.318;2022-10-16T11:02:38;95266.50;;;18.49;46.22
6150;BME280;3106;42.670;23.318;2022-10-16T11:05:40;95259.97;;;18.54;42.39
6150;BME280;3106;42.670;23.318;2022-10-16T11:08:13;95267.94;;;18.76;41.83
6150;BME280;3106;42.670;23.318;2022-10-16T11:10:47;95248.72;;;18.92;42.24
6150;BME280;3106;42.670;23.318;2022-10-16T11:13:23;95253.09;;;19.03;42.62
6150;BME280;3106;42.670;23.318;2022-10-16T11:15:57;95243.75;;;18.97;44.94
6150;BME280;3106;42.670;23.318;2022-10-16T11:18:29;95243.84;;;18.64;44.26
6150;BME280;3106;42.670;23.318;2022-10-16T11:21:03;95215.00;;;18.42;44.16
6150;BME280;3106;42.670;23.318;2022-10-16T11:23:35;95241.00;;;18.54;43.70
6150;BME280;3106;42.670;23.318;2022-10-16T11:26:13;95233.44;;;18.70;42.34
6150;BME280;3106;42.670;23.318;2022-10-16T11:28:45;95250.41;;;18.63;45.62
6150;BME280;3106;42.670;23.318;2022-10-16T11:31:17;95238.88;;;18.73;44.39
6150;BME280;3106;42.670;23.318;2022-10-16T11:33:48;95234.00;;;18.89;41.28
6150;BME280;3106;42.670;23.318;2022-10-16T11:36:22;95229.44;;;18.97;41.36
6150;BME280;3106;42.670;23.318;2022-10-16T11:38:53;95233.41;;;19.13;41.83
6150;BME280;3106;42.670;23.318;2022-10-16T11:41:27;95246.03;;;19.39;41.52
6150;BME280;3106;42.670;23.318;2022-10-16T11:44:09;95254.75;;;19.65;40.21
6150;BME280;3106;42.670;23.318;2022-10-16T11:46:44;95230.94;;;19.41;41.40
6150;BME280;3106;42.670;23.318;2022-10-16T11:49:15;95246.81;;;19.39;43.73
6150;BME280;3106;42.670;23.318;2022-10-16T11:51:50;95237.16;;;19.42;42.90
6150;BME280;3106;42.670;23.318;2022-10-16T11:54:24;95237.53;;;19.40;43.29
6150;BME280;3106;42.670;23.318;2022-10-16T11:56:57;95246.75;;;19.32;43.00
6150;BME280;3106;42.670;23.318;2022-10-16T11:59:29;95243.69;;;19.34;43.48
6150;BME280;3106;42.670;23.318;2022-10-16T12:02:15;95210.41;;;19.40;43.30
6150;BME280;3106;42.670;23.318;2022-10-16T12:04:49;95255.84;;;19.57;42.79
6150;BME280;3106;42.670;23.318;2022-10-16T12:07:21;95244.66;;;19.66;42.08
6150;BME280;3106;42.670;23.318;2022-10-16T12:09:51;95245.75;;;19.54;42.15
6150;BME280;3106;42.670;23.318;2022-10-16T12:12:28;95232.13;;;19.47;41.23
6150;BME280;3106;42.670;23.318;2022-10-16T12:15:19;95235.88;;;19.25;42.54
6150;BME280;3106;42.670;23.318;2022-10-16T12:17:46;95223.97;;;18.93;43.88
6150;BME280;3106;42.670;23.318;2022-10-16T12:20:25;95238.63;;;18.85;44.05
6150;BME280;3106;42.670;23.318;2022-10-16T12:22:56;95244.13;;;18.96;44.02
6150;BME280;3106;42.670;23.318;2022-10-16T12:25:26;95234.47;;;18.98;44.28
6150;BME280;3106;42.670;23.318;2022-10-16T12:27:59;95220.88;;;18.95;43.63
6150;BME280;3106;42.670;23.318;2022-10-16T12:30:28;95232.66;;;19.13;43.52
6150;BME280;3106;42.670;23.318;2022-10-16T12:32:56;95241.13;;;19.08;41.59
6150;BME280;3106;42.670;23.318;2022-10-16T12:35:26;95241.50;;;19.06;42.67
6150;BME280;3106;42.670;23.318;2022-10-16T12:38:05;95237.22;;;19.02;43.85
6150;BME280;3106;42.670;23.318;2022-10-16T12:40:35;95239.69;;;19.17;44.61
6150;BME280;3106;42.670;23.318;2022-10-16T12:46:24;95246.84;;;19.43;41.60
6150;BME280;3106;42.670;23.318;2022-10-16T12:49:21;95245.72;;;19.51;43.20
6150;BME280;3106;42.670;23.318;2022-10-16T12:51:49;95243.28;;;19.35;43.07
6150;BME280;3106;42.670;23.318;2022-10-16T12:54:19;95238.38;;;19.04;43.07
6150;BME280;3106;42.670;23.318;2022-10-16T12:56:57;95233.22;;;18.89;43.87
6150;BME280;3106;42.670;23.318;2022-10-16T12:59:34;95246.06;;;18.95;43.93
6150;BME280;3106;42.670;23.318;2022-10-16T13:02:39;95245.00;;;19.10;43.04
6150;BME280;3106;42.670;23.318;2022-10-16T13:05:26;95252.69;;;19.48;42.94
6150;BME280;3106;42.670;23.318;2022-10-16T13:08:05;95258.91;;;19.49;43.25
6150;BME280;3106;42.670;23.318;2022-10-16T13:10:41;95243.38;;;19.49;42.91
6150;BME280;3106;42.670;23.318;2022-10-16T13:16:21;95252.03;;;19.65;41.56
6150;BME280;3106;42.670;23.318;2022-10-16T13:18:59;95257.13;;;19.77;40.91
6150;BME280;3106;42.670;23.318;2022-10-16T13:21:35;95235.34;;;19.63;41.63
6150;BME280;3106;42.670;23.318;2022-10-16T13:24:14;95255.22;;;19.81;41.11
6150;BME280;3106;42.670;23.318;2022-10-16T13:26:50;95254.44;;;19.81;41.19
6150;BME280;3106;42.670;23.318;2022-10-16T13:29:20;95259.91;;;19.87;41.17
6150;BME280;3106;42.670;23.318;2022-10-16T13:31:47;95262.59;;;19.84;39.85
6150;BME280;3106;42.670;23.318;2022-10-16T13:34:17;95250.19;;;19.83;39.80
6150;BME280;3106;42.670;23.318;2022-10-16T13:36:47;95240.09;;;19.80;38.91